createdAt,value
2018-11-29T00:00:34.933Z,0.00
2018-11-29T00:01:34.908Z,0.00
2018-11-29T00:02:34.882Z,0.00
2018-11-29T00:03:34.865Z,0.00
2018-11-29T00:04:34.830Z,0.00
2018-11-29T00:05:34.814Z,0.00
2018-11-29T00:06:34.782Z,0.00
2018-11-29T00:07:34.759Z,0.00
2018-11-29T00:08:34.740Z,0.00
2018-11-29T00:09:34.721Z,0.00
2018-11-29T00:10:34.692Z,0.00
2018-11-29T00:11:34.660Z,0.00
2018-11-29T00:12:34.644Z,0.00
2018-11-29T00:13:34.615Z,0.00
2018-11-29T00:14:34.593Z,0.00
2018-11-29T00:15:34.576Z,0.00
2018-11-29T00:16:34.546Z,0.00
2018-11-29T00:17:34.523Z,0.00
2018-11-29T00:18:34.491Z,0.00
2018-11-29T00:19:34.468Z,0.00
2018-11-29T00:20:34.446Z,0.00
2018-11-29T00:21:34.427Z,0.00
2018-11-29T00:22:34.405Z,0.00
2018-11-29T00:23:34.379Z,0.00
2018-11-29T00:24:34.347Z,0.00
2018-11-29T00:25:34.331Z,0.00
2018-11-29T00:26:34.305Z,0.00
2018-11-29T00:27:34.280Z,0.00
2018-11-29T00:28:34.254Z,0.00
2018-11-29T00:29:34.233Z,0.00
2018-11-29T00:30:34.201Z,0.00
2018-11-29T00:31:34.184Z,0.00
2018-11-29T00:32:34.152Z,0.00
2018-11-29T00:33:34.137Z,0.00
2018-11-29T00:34:34.111Z,0.00
2018-11-29T00:35:34.082Z,0.00
2018-11-29T00:36:34.063Z,0.00
2018-11-29T00:37:34.032Z,0.00
2018-11-29T00:38:34.013Z,0.00
2018-11-29T00:39:33.984Z,0.00
2018-11-29T00:40:33.971Z,0.00
2018-11-29T00:41:33.936Z,0.00
2018-11-29T00:42:33.913Z,0.00
2018-11-29T00:43:33.892Z,0.00
2018-11-29T00:44:33.869Z,0.00
2018-11-29T00:45:33.843Z,0.00
2018-11-29T00:46:33.816Z,0.00
2018-11-29T00:47:33.794Z,0.00
2018-11-29T00:48:33.769Z,0.00
2018-11-29T00:49:33.749Z,0.00
2018-11-29T00:50:33.727Z,0.00
2018-11-29T00:51:33.701Z,0.00
2018-11-29T00:52:33.679Z,0.00
2018-11-29T00:53:33.644Z,0.00
2018-11-29T00:54:33.628Z,0.00
2018-11-29T00:55:33.597Z,0.00
2018-11-29T00:56:33.575Z,0.00
2018-11-29T00:57:33.552Z,0.00
2018-11-29T00:58:33.526Z,0.00
2018-11-29T00:59:33.501Z,0.00
2018-11-29T01:00:33.491Z,0.00
2018-11-29T01:01:33.452Z,0.00
2018-11-29T01:02:33.436Z,0.00
2018-11-29T01:03:33.413Z,0.00
2018-11-29T01:04:33.382Z,0.00
2018-11-29T01:05:33.365Z,0.00
2018-11-29T01:06:33.334Z,0.00
2018-11-29T01:07:33.308Z,0.00
2018-11-29T01:08:33.286Z,0.00
2018-11-29T01:09:33.263Z,0.00
2018-11-29T01:10:33.238Z,0.00
2018-11-29T01:11:33.217Z,0.00
2018-11-29T01:12:33.191Z,0.00
2018-11-29T01:13:33.165Z,0.00
2018-11-29T01:14:33.143Z,0.00
2018-11-29T01:15:33.118Z,0.00
2018-11-29T01:16:33.108Z,0.00
2018-11-29T01:17:33.073Z,0.00
2018-11-29T01:18:33.044Z,0.00
2018-11-29T01:19:33.025Z,0.00
2018-11-29T01:20:32.993Z,0.00
2018-11-29T01:21:32.977Z,0.00
2018-11-29T01:22:32.951Z,0.00
2018-11-29T01:23:32.927Z,0.00
2018-11-29T01:24:32.900Z,0.00
2018-11-29T01:25:32.875Z,0.00
2018-11-29T01:26:32.848Z,0.00
2018-11-29T01:27:32.829Z,0.00
2018-11-29T01:28:32.804Z,0.00
2018-11-29T01:29:32.781Z,0.00
2018-11-29T01:30:32.759Z,0.00
2018-11-29T01:31:32.735Z,0.00
2018-11-29T01:32:32.711Z,0.00
2018-11-29T01:33:32.679Z,0.00
2018-11-29T01:34:32.660Z,0.00
2018-11-29T01:35:32.631Z,0.00
2018-11-29T01:36:32.608Z,0.00
2018-11-29T01:37:32.582Z,0.00
2018-11-29T01:38:32.563Z,0.00
2018-11-29T01:39:32.541Z,0.00
2018-11-29T01:40:32.513Z,0.00
2018-11-29T01:41:32.490Z,0.00
2018-11-29T01:42:32.471Z,0.00
2018-11-29T01:43:32.445Z,0.00
2018-11-29T01:44:32.417Z,0.00
2018-11-29T01:45:32.389Z,0.00
2018-11-29T01:46:32.367Z,0.00
2018-11-29T01:47:32.348Z,0.00
2018-11-29T01:48:32.326Z,0.00
2018-11-29T01:49:32.293Z,0.00
2018-11-29T01:50:32.272Z,0.00
2018-11-29T01:51:32.245Z,0.00
2018-11-29T01:52:32.223Z,0.00
2018-11-29T01:53:32.197Z,0.00
2018-11-29T01:54:32.172Z,0.00
2018-11-29T01:55:32.159Z,0.00
2018-11-29T01:56:32.124Z,0.00
2018-11-29T01:57:32.112Z,0.00
2018-11-29T01:58:32.080Z,0.00
2018-11-29T01:59:32.051Z,0.00
2018-11-29T02:00:32.029Z,0.00
2018-11-29T02:01:32.009Z,0.00
2018-11-29T02:02:32.000Z,0.00
2018-11-29T02:03:31.962Z,0.00
2018-11-29T02:04:31.940Z,0.00
2018-11-29T02:05:31.910Z,0.00
2018-11-29T02:06:31.881Z,0.00
2018-11-29T02:07:31.862Z,0.00
2018-11-29T02:08:31.843Z,0.00
2018-11-29T02:09:31.816Z,0.00
2018-11-29T02:10:31.792Z,0.00
2018-11-29T02:11:31.767Z,0.00
2018-11-29T02:12:31.739Z,0.00
2018-11-29T02:13:31.713Z,0.00
2018-11-29T02:14:31.691Z,0.00
2018-11-29T02:15:31.671Z,0.00
2018-11-29T02:16:31.648Z,0.00
2018-11-29T02:17:31.630Z,0.00
2018-11-29T02:18:31.592Z,0.00
2018-11-29T02:19:31.577Z,0.00
2018-11-29T02:20:31.551Z,0.00
2018-11-29T02:21:31.525Z,0.00
2018-11-29T02:22:31.503Z,0.00
2018-11-29T02:23:31.474Z,0.00
2018-11-29T02:24:31.448Z,0.00
2018-11-29T02:25:31.431Z,0.00
2018-11-29T02:26:31.402Z,0.00
2018-11-29T02:27:31.379Z,0.00
2018-11-29T02:28:31.357Z,0.00
2018-11-29T02:29:31.329Z,0.00
2018-11-29T02:30:31.309Z,0.00
2018-11-29T02:31:31.278Z,0.00
2018-11-29T02:32:31.255Z,0.00
2018-11-29T02:33:31.236Z,0.00
2018-11-29T02:34:31.204Z,0.00
2018-11-29T02:35:31.195Z,0.00
2018-11-29T02:36:31.163Z,0.00
2018-11-29T02:37:31.138Z,0.00
2018-11-29T02:38:31.115Z,0.00
2018-11-29T02:39:31.088Z,0.00
2018-11-29T02:40:31.071Z,0.00
2018-11-29T02:41:31.045Z,0.00
2018-11-29T02:42:31.015Z,0.00
2018-11-29T02:43:30.990Z,0.00
2018-11-29T02:44:30.973Z,0.00
2018-11-29T02:45:30.941Z,0.00
2018-11-29T02:46:30.917Z,0.00
2018-11-29T02:47:30.893Z,0.00
2018-11-29T02:48:30.874Z,0.00
2018-11-29T02:49:30.849Z,0.00
2018-11-29T02:50:30.822Z,0.00
2018-11-29T02:51:30.805Z,0.00
2018-11-29T02:52:30.774Z,0.00
2018-11-29T02:53:30.748Z,0.00
2018-11-29T02:54:30.725Z,0.00
2018-11-29T02:55:30.702Z,0.00
2018-11-29T02:56:30.674Z,0.00
2018-11-29T02:57:30.662Z,0.00
2018-11-29T02:58:30.633Z,0.00
2018-11-29T02:59:30.607Z,0.00
2018-11-29T03:00:30.579Z,0.00
2018-11-29T03:01:30.553Z,0.00
2018-11-29T03:02:30.543Z,0.00
2018-11-29T03:03:30.505Z,0.00
2018-11-29T03:04:30.482Z,0.00
2018-11-29T03:05:30.456Z,0.00
2018-11-29T03:06:30.447Z,0.00
2018-11-29T03:07:30.413Z,0.00
2018-11-29T03:08:30.405Z,0.00
2018-11-29T03:09:30.360Z,0.00
2018-11-29T03:10:30.339Z,0.00
2018-11-29T03:11:30.321Z,0.00
2018-11-29T03:12:30.296Z,0.00
2018-11-29T03:13:30.267Z,0.00
2018-11-29T03:14:30.242Z,0.00
2018-11-29T03:15:30.219Z,0.00
2018-11-29T03:16:31.173Z,0.00
2018-11-29T03:17:30.168Z,0.00
2018-11-29T03:18:30.155Z,0.00
2018-11-29T03:19:30.126Z,0.00
2018-11-29T03:20:30.098Z,0.00
2018-11-29T03:21:30.075Z,0.00
2018-11-29T03:22:30.055Z,0.00
2018-11-29T03:23:30.025Z,0.00
2018-11-29T03:24:30.012Z,0.00
2018-11-29T03:25:29.980Z,0.00
2018-11-29T03:26:29.959Z,0.00
2018-11-29T03:27:29.925Z,0.00
2018-11-29T03:28:29.906Z,0.00
2018-11-29T03:29:29.884Z,0.00
2018-11-29T03:30:29.856Z,0.00
2018-11-29T03:31:29.831Z,0.00
2018-11-29T03:32:29.808Z,0.00
2018-11-29T03:33:29.802Z,0.00
2018-11-29T03:34:29.760Z,0.00
2018-11-29T03:35:29.734Z,0.00
2018-11-29T03:36:29.713Z,0.00
2018-11-29T03:37:29.718Z,0.00
2018-11-29T03:38:29.663Z,0.00
2018-11-29T03:39:29.638Z,0.00
2018-11-29T03:40:29.622Z,0.00
2018-11-29T03:41:29.594Z,0.00
2018-11-29T03:42:29.571Z,0.00
2018-11-29T03:43:29.546Z,0.00
2018-11-29T03:44:29.525Z,0.00
2018-11-29T03:45:29.498Z,0.00
2018-11-29T03:46:29.475Z,0.00
2018-11-29T03:47:29.476Z,0.00
2018-11-29T03:48:29.427Z,0.00
2018-11-29T03:49:29.396Z,0.00
2018-11-29T03:50:29.374Z,0.00
2018-11-29T03:51:29.348Z,0.00
2018-11-29T03:52:29.332Z,0.00
2018-11-29T03:53:29.302Z,0.00
2018-11-29T03:54:29.275Z,0.00
2018-11-29T03:55:29.255Z,0.00
2018-11-29T03:56:29.228Z,0.00
2018-11-29T03:57:29.213Z,0.00
2018-11-29T03:58:29.179Z,0.00
2018-11-29T03:59:29.167Z,0.00
2018-11-29T04:00:29.132Z,0.00
2018-11-29T04:01:29.115Z,0.00
2018-11-29T04:02:29.084Z,0.00
2018-11-29T04:03:29.062Z,0.00
2018-11-29T04:04:29.037Z,0.00
2018-11-29T04:05:29.019Z,0.00
2018-11-29T04:06:28.990Z,0.00
2018-11-29T04:07:28.973Z,0.00
2018-11-29T04:08:28.951Z,0.00
2018-11-29T04:09:28.929Z,0.00
2018-11-29T04:10:28.915Z,0.00
2018-11-29T04:11:28.874Z,0.00
2018-11-29T04:12:28.848Z,0.00
2018-11-29T04:13:28.827Z,0.00
2018-11-29T04:14:28.799Z,0.00
2018-11-29T04:15:28.783Z,0.00
2018-11-29T04:16:28.747Z,0.00
2018-11-29T04:17:28.722Z,0.00
2018-11-29T04:18:28.700Z,0.00
2018-11-29T04:19:28.677Z,0.00
2018-11-29T04:20:28.658Z,0.00
2018-11-29T04:21:28.634Z,0.00
2018-11-29T04:22:28.603Z,0.00
2018-11-29T04:23:28.595Z,0.00
2018-11-29T04:24:28.561Z,0.00
2018-11-29T04:25:28.554Z,0.00
2018-11-29T04:26:28.513Z,0.00
2018-11-29T04:27:28.486Z,0.00
2018-11-29T04:28:28.464Z,0.00
2018-11-29T04:29:28.440Z,0.00
2018-11-29T04:30:28.428Z,0.00
2018-11-29T04:31:28.387Z,0.00
2018-11-29T04:32:28.367Z,0.00
2018-11-29T04:33:28.346Z,0.00
2018-11-29T04:34:28.319Z,0.00
2018-11-29T04:35:28.291Z,0.00
2018-11-29T04:36:28.272Z,0.00
2018-11-29T04:37:28.243Z,0.00
2018-11-29T04:38:28.226Z,0.00
2018-11-29T04:39:28.201Z,0.00
2018-11-29T04:40:28.181Z,0.00
2018-11-29T04:41:28.147Z,0.00
2018-11-29T04:42:28.149Z,0.00
2018-11-29T04:43:28.127Z,0.00
2018-11-29T04:44:28.083Z,0.00
2018-11-29T04:45:28.054Z,0.00
2018-11-29T04:46:28.025Z,0.00
2018-11-29T04:47:28.005Z,0.00
2018-11-29T04:48:27.981Z,0.00
2018-11-29T04:49:27.954Z,0.00
2018-11-29T04:50:27.935Z,0.00
2018-11-29T04:51:27.913Z,0.00
2018-11-29T04:52:27.903Z,0.00
2018-11-29T04:53:27.870Z,0.00
2018-11-29T04:54:27.838Z,0.00
2018-11-29T04:55:27.809Z,0.00
2018-11-29T04:56:27.791Z,0.00
2018-11-29T04:57:27.768Z,0.00
2018-11-29T04:58:27.744Z,0.00
2018-11-29T04:59:27.735Z,0.00
2018-11-29T05:00:27.698Z,0.00
2018-11-29T05:01:27.669Z,0.00
2018-11-29T05:02:27.639Z,0.00
2018-11-29T05:03:27.623Z,0.00
2018-11-29T05:04:27.599Z,0.00
2018-11-29T05:05:27.571Z,0.00
2018-11-29T05:06:27.559Z,0.00
2018-11-29T05:07:27.528Z,0.00
2018-11-29T05:08:27.500Z,0.00
2018-11-29T05:09:27.494Z,0.00
2018-11-29T05:10:27.446Z,0.00
2018-11-29T05:11:27.437Z,0.00
2018-11-29T05:12:27.402Z,0.00
2018-11-29T05:13:27.373Z,0.00
2018-11-29T05:14:27.347Z,0.00
2018-11-29T05:15:27.324Z,0.00
2018-11-29T05:16:27.309Z,0.00
2018-11-29T05:17:27.280Z,0.00
2018-11-29T05:18:27.261Z,0.00
2018-11-29T05:19:27.248Z,0.00
2018-11-29T05:20:27.213Z,0.00
2018-11-29T05:21:27.184Z,0.00
2018-11-29T05:22:27.181Z,0.00
2018-11-29T05:23:27.135Z,0.00
2018-11-29T05:24:27.133Z,0.00
2018-11-29T05:25:27.082Z,0.00
2018-11-29T05:26:27.063Z,0.00
2018-11-29T05:27:27.038Z,0.00
2018-11-29T05:28:27.050Z,0.00
2018-11-29T05:29:27.000Z,0.00
2018-11-29T05:30:26.961Z,0.00
2018-11-29T05:31:26.939Z,0.00
2018-11-29T05:32:26.923Z,0.00
2018-11-29T05:33:26.898Z,0.00
2018-11-29T05:34:26.865Z,0.00
2018-11-29T05:35:26.846Z,0.00
2018-11-29T05:36:26.815Z,0.00
2018-11-29T05:37:26.808Z,0.00
2018-11-29T05:38:26.767Z,0.00
2018-11-29T05:39:26.767Z,0.00
2018-11-29T05:40:26.725Z,0.00
2018-11-29T05:41:26.707Z,0.00
2018-11-29T05:42:26.673Z,0.00
2018-11-29T05:43:26.687Z,0.00
2018-11-29T05:44:26.635Z,0.00
2018-11-29T05:45:26.606Z,0.00
2018-11-29T05:46:26.615Z,0.00
2018-11-29T05:47:26.567Z,0.00
2018-11-29T05:48:26.531Z,0.00
2018-11-29T05:49:26.529Z,0.00
2018-11-29T05:50:26.475Z,0.00
2018-11-29T05:51:26.487Z,0.00
2018-11-29T05:52:26.471Z,0.00
2018-11-29T05:53:26.428Z,0.00
2018-11-29T05:54:26.386Z,0.00
2018-11-29T05:55:26.364Z,0.00
2018-11-29T05:56:26.330Z,0.00
2018-11-29T05:57:26.316Z,0.00
2018-11-29T05:58:26.288Z,0.00
2018-11-29T05:59:26.283Z,0.00
2018-11-29T06:00:26.252Z,0.00
2018-11-29T06:01:26.209Z,0.00
2018-11-29T06:02:26.296Z,0.00
2018-11-29T06:03:26.178Z,0.00
2018-11-29T06:04:26.152Z,0.00
2018-11-29T06:05:26.132Z,0.00
2018-11-29T06:06:26.110Z,0.00
2018-11-29T06:07:26.101Z,0.00
2018-11-29T06:08:26.039Z,0.00
2018-11-29T06:09:26.070Z,0.00
2018-11-29T06:10:26.016Z,0.00
2018-11-29T06:11:25.981Z,0.00
2018-11-29T06:12:25.939Z,0.00
2018-11-29T06:13:25.936Z,0.00
2018-11-29T06:14:25.895Z,0.00
2018-11-29T06:15:25.899Z,0.00
2018-11-29T06:16:25.863Z,0.00
2018-11-29T06:17:25.818Z,0.00
2018-11-29T06:18:25.818Z,0.00
2018-11-29T06:19:25.791Z,0.00
2018-11-29T06:20:25.753Z,0.00
2018-11-29T06:21:25.751Z,4.00
2018-11-29T06:22:25.737Z,4.00
2018-11-29T06:23:25.684Z,0.00
2018-11-29T06:24:25.657Z,4.00
2018-11-29T06:25:25.631Z,4.00
2018-11-29T06:26:25.614Z,4.00
2018-11-29T06:27:25.603Z,4.00
2018-11-29T06:28:25.578Z,4.00
2018-11-29T06:29:25.537Z,8.00
2018-11-29T06:30:25.527Z,8.00
2018-11-29T06:31:25.507Z,8.00
2018-11-29T06:32:25.480Z,12.00
2018-11-29T06:33:25.432Z,8.00
2018-11-29T06:34:25.427Z,16.00
2018-11-29T06:35:25.390Z,16.00
2018-11-29T06:36:25.362Z,16.00
2018-11-29T06:37:25.378Z,24.00
2018-11-29T06:38:25.362Z,28.00
2018-11-29T06:39:25.308Z,32.00
2018-11-29T06:40:25.266Z,36.00
2018-11-29T06:41:25.232Z,40.00
2018-11-29T06:42:25.210Z,48.00
2018-11-29T06:43:25.191Z,52.00
2018-11-29T06:44:25.181Z,64.00
2018-11-29T06:45:25.162Z,76.00
2018-11-29T06:46:25.755Z,92.00
2018-11-29T06:47:25.105Z,104.00
2018-11-29T06:48:25.062Z,108.00
2018-11-29T06:49:25.035Z,120.00
2018-11-29T06:50:25.038Z,128.00
2018-11-29T06:51:24.983Z,144.00
2018-11-29T06:52:24.980Z,164.00
2018-11-29T06:53:24.932Z,180.00
2018-11-29T06:54:24.929Z,200.00
2018-11-29T06:55:24.898Z,228.00
2018-11-29T06:56:24.895Z,264.00
2018-11-29T06:57:24.890Z,300.00
2018-11-29T06:58:24.849Z,328.00
2018-11-29T06:59:24.814Z,348.00
2018-11-29T07:00:24.788Z,368.00
2018-11-29T07:01:24.766Z,404.00
2018-11-29T07:02:24.725Z,448.00
2018-11-29T07:03:28.837Z,500.00
2018-11-29T07:04:24.676Z,540.00
2018-11-29T07:05:24.661Z,572.00
2018-11-29T07:06:24.620Z,600.00
2018-11-29T07:07:24.607Z,636.00
2018-11-29T07:08:24.576Z,680.00
2018-11-29T07:09:24.549Z,720.00
2018-11-29T07:10:24.526Z,756.00
2018-11-29T07:11:24.520Z,776.00
2018-11-29T07:12:24.482Z,796.00
2018-11-29T07:13:24.466Z,816.00
2018-11-29T07:14:24.447Z,836.00
2018-11-29T07:15:24.405Z,856.00
2018-11-29T07:16:24.393Z,880.00
2018-11-29T07:17:24.355Z,912.00
2018-11-29T07:18:24.347Z,940.00
2018-11-29T07:19:24.315Z,964.00
2018-11-29T07:20:24.312Z,984.00
2018-11-29T07:21:24.272Z,1004.00
2018-11-29T07:22:24.229Z,1036.00
2018-11-29T07:23:24.213Z,1072.00
2018-11-29T07:24:24.207Z,1108.00
2018-11-29T07:25:24.168Z,1156.00
2018-11-29T07:26:24.142Z,1204.00
2018-11-29T07:27:24.111Z,1232.00
2018-11-29T07:28:24.095Z,1232.00
2018-11-29T07:29:24.122Z,1240.00
2018-11-29T07:30:24.072Z,1256.00
2018-11-29T07:31:24.038Z,1276.00
2018-11-29T07:32:24.018Z,1308.00
2018-11-29T07:33:23.981Z,1336.00
2018-11-29T07:34:23.943Z,1368.00
2018-11-29T07:35:23.937Z,1404.00
2018-11-29T07:36:23.916Z,1436.00
2018-11-29T07:37:23.952Z,1464.00
2018-11-29T07:38:23.859Z,1508.00
2018-11-29T07:39:23.843Z,1560.00
2018-11-29T07:40:23.822Z,1608.00
2018-11-29T07:41:23.782Z,1648.00
2018-11-29T07:42:23.800Z,1684.00
2018-11-29T07:43:23.739Z,1716.00
2018-11-29T07:44:23.698Z,1748.00
2018-11-29T07:45:23.694Z,1776.00
2018-11-29T07:46:23.659Z,1800.00
2018-11-29T07:47:23.660Z,1812.00
2018-11-29T07:48:23.623Z,1828.00
2018-11-29T07:49:23.610Z,1848.00
2018-11-29T07:50:23.584Z,1864.00
2018-11-29T07:51:23.546Z,1884.00
2018-11-29T07:52:23.533Z,1904.00
2018-11-29T07:53:23.503Z,1928.00
2018-11-29T07:54:23.469Z,1952.00
2018-11-29T07:55:23.440Z,1976.00
2018-11-29T07:56:23.429Z,2004.00
2018-11-29T07:57:23.393Z,2036.00
2018-11-29T07:58:23.379Z,2076.00
2018-11-29T07:59:23.344Z,2124.00
2018-11-29T08:00:23.321Z,2168.00
2018-11-29T08:01:23.296Z,2200.00
2018-11-29T08:02:23.277Z,2224.00
2018-11-29T08:03:23.251Z,2240.00
2018-11-29T08:04:23.222Z,2252.00
2018-11-29T08:05:23.193Z,2288.00
2018-11-29T08:06:23.180Z,2360.00
2018-11-29T08:07:23.149Z,2520.00
2018-11-29T08:08:23.158Z,2804.00
2018-11-29T08:09:23.117Z,2976.00
2018-11-29T08:10:23.081Z,3044.00
2018-11-29T08:11:23.052Z,3060.00
2018-11-29T08:12:23.032Z,3112.00
2018-11-29T08:13:23.011Z,3220.00
2018-11-29T08:14:22.981Z,3332.00
2018-11-29T08:15:22.989Z,3484.00
2018-11-29T08:16:22.962Z,3572.00
2018-11-29T08:17:22.917Z,3688.00
2018-11-29T08:18:22.911Z,3792.00
2018-11-29T08:19:22.890Z,3908.00
2018-11-29T08:20:22.844Z,3988.00
2018-11-29T08:21:22.826Z,4036.00
2018-11-29T08:22:22.794Z,4076.00
2018-11-29T08:23:22.769Z,4100.00
2018-11-29T08:24:22.746Z,4108.00
2018-11-29T08:25:22.717Z,4120.00
2018-11-29T08:26:22.708Z,4136.00
2018-11-29T08:27:22.710Z,4136.00
2018-11-29T08:28:22.699Z,4136.00
2018-11-29T08:29:22.650Z,4124.00
2018-11-29T08:30:22.607Z,4112.00
2018-11-29T08:31:22.609Z,4104.00
2018-11-29T08:32:22.561Z,4100.00
2018-11-29T08:33:22.564Z,4088.00
2018-11-29T08:34:22.522Z,4088.00
2018-11-29T08:35:22.487Z,4064.00
2018-11-29T08:36:22.481Z,4032.00
2018-11-29T08:37:22.465Z,3988.00
2018-11-29T08:38:22.414Z,3940.00
2018-11-29T08:39:22.399Z,3880.00
2018-11-29T08:40:22.400Z,3808.00
2018-11-29T08:41:22.372Z,3732.00
2018-11-29T08:42:22.325Z,3668.00
2018-11-29T08:43:22.363Z,3632.00
2018-11-29T08:44:22.270Z,3632.00
2018-11-29T08:45:22.251Z,3672.00
2018-11-29T08:46:22.251Z,3732.00
2018-11-29T08:47:22.207Z,3816.00
2018-11-29T08:48:22.217Z,3920.00
2018-11-29T08:49:22.162Z,4028.00
2018-11-29T08:50:22.172Z,4168.00
2018-11-29T08:51:22.114Z,4332.00
2018-11-29T08:52:22.085Z,4476.00
2018-11-29T08:53:22.063Z,4588.00
2018-11-29T08:54:22.040Z,4684.00
2018-11-29T08:55:22.022Z,4752.00
2018-11-29T08:56:22.000Z,4820.00
2018-11-29T08:57:21.987Z,4904.00
2018-11-29T08:58:21.957Z,5000.00
2018-11-29T08:59:21.942Z,5128.00
2018-11-29T09:00:21.905Z,5276.00
2018-11-29T09:01:21.968Z,5488.00
2018-11-29T09:02:21.866Z,5652.00
2018-11-29T09:03:21.876Z,5760.00
2018-11-29T09:04:21.868Z,5864.00
2018-11-29T09:05:21.784Z,6060.00
2018-11-29T09:06:21.767Z,6308.00
2018-11-29T09:07:21.791Z,6628.00
2018-11-29T09:08:21.714Z,6936.00
2018-11-29T09:09:21.695Z,7256.00
2018-11-29T09:10:21.678Z,7480.00
2018-11-29T09:11:21.653Z,7560.00
2018-11-29T09:12:21.628Z,7644.00
2018-11-29T09:13:21.622Z,7712.00
2018-11-29T09:14:21.603Z,7772.00
2018-11-29T09:15:21.562Z,7836.00
2018-11-29T09:16:21.539Z,7796.00
2018-11-29T09:17:21.514Z,7956.00
2018-11-29T09:18:21.510Z,8148.00
2018-11-29T09:19:21.491Z,8092.00
2018-11-29T09:20:21.449Z,8108.00
2018-11-29T09:21:21.499Z,8204.00
2018-11-29T09:22:21.416Z,8368.00
2018-11-29T09:23:21.385Z,8424.00
2018-11-29T09:24:21.394Z,8372.00
2018-11-29T09:25:21.330Z,8264.00
2018-11-29T09:26:21.332Z,8168.00
2018-11-29T09:27:21.288Z,8096.00
2018-11-29T09:28:21.263Z,8108.00
2018-11-29T09:29:21.267Z,8212.00
2018-11-29T09:30:21.214Z,8348.00
2018-11-29T09:31:21.223Z,8520.00
2018-11-29T09:32:21.166Z,8708.00
2018-11-29T09:33:21.140Z,8868.00
2018-11-29T09:34:21.123Z,9072.00
2018-11-29T09:35:21.157Z,9248.00
2018-11-29T09:36:21.865Z,9576.00
2018-11-29T09:37:21.067Z,10352.00
2018-11-29T09:38:21.038Z,9608.00
2018-11-29T09:39:21.006Z,9620.00
2018-11-29T09:40:21.003Z,9468.00
2018-11-29T09:41:21.041Z,9760.00
2018-11-29T09:42:20.948Z,9444.00
2018-11-29T09:43:20.936Z,9168.00
2018-11-29T09:44:20.897Z,9328.00
2018-11-29T09:45:20.891Z,9588.00
2018-11-29T09:46:20.879Z,9912.00
2018-11-29T09:47:20.855Z,9616.00
2018-11-29T09:48:20.804Z,9224.00
2018-11-29T09:49:20.807Z,9224.00
2018-11-29T09:50:20.778Z,9264.00
2018-11-29T09:51:20.792Z,9172.00
2018-11-29T09:52:20.708Z,9144.00
2018-11-29T09:53:20.730Z,9080.00
2018-11-29T09:54:20.721Z,8548.00
2018-11-29T09:55:20.650Z,8320.00
2018-11-29T09:56:20.624Z,8196.00
2018-11-29T09:57:20.630Z,8104.00
2018-11-29T09:58:20.589Z,8140.00
2018-11-29T09:59:20.589Z,8196.00
2018-11-29T10:00:27.044Z,8232.00
2018-11-29T10:01:20.521Z,8232.00
2018-11-29T10:02:20.541Z,8244.00
2018-11-29T10:03:20.480Z,8236.00
2018-11-29T10:04:20.477Z,8180.00
2018-11-29T10:05:20.467Z,8136.00
2018-11-29T10:06:20.408Z,8132.00
2018-11-29T10:07:20.386Z,8148.00
2018-11-29T10:08:26.108Z,8200.00
2018-11-29T10:09:20.335Z,8240.00
2018-11-29T10:10:20.342Z,8216.00
2018-11-29T10:11:20.335Z,8188.00
2018-11-29T10:12:20.264Z,8156.00
2018-11-29T10:13:20.303Z,8108.00
2018-11-29T10:14:20.233Z,8052.00
2018-11-29T10:15:20.245Z,8052.00
2018-11-29T10:16:20.188Z,8064.00
2018-11-29T10:17:20.231Z,8144.00
2018-11-29T10:18:20.178Z,8308.00
2018-11-29T10:19:20.185Z,8568.00
2018-11-29T10:20:20.094Z,8904.00
2018-11-29T10:21:20.086Z,9236.00
2018-11-29T10:22:20.060Z,9456.00
2018-11-29T10:23:20.025Z,9556.00
2018-11-29T10:24:20.037Z,9600.00
2018-11-29T10:25:20.009Z,9580.00
2018-11-29T10:26:20.009Z,9576.00
2018-11-29T10:27:19.954Z,9612.00
2018-11-29T10:28:19.907Z,9660.00
2018-11-29T10:29:19.913Z,9732.00
2018-11-29T10:30:19.888Z,9744.00
2018-11-29T10:31:19.846Z,9700.00
2018-11-29T10:32:19.852Z,9600.00
2018-11-29T10:33:19.800Z,9472.00
2018-11-29T10:34:19.795Z,9320.00
2018-11-29T10:35:19.773Z,9164.00
2018-11-29T10:36:19.766Z,9040.00
2018-11-29T10:37:19.696Z,8940.00
2018-11-29T10:38:19.683Z,8840.00
2018-11-29T10:39:19.669Z,8784.00
2018-11-29T10:40:19.639Z,8792.00
2018-11-29T10:41:19.614Z,8840.00
2018-11-29T10:42:19.624Z,8904.00
2018-11-29T10:43:19.608Z,8952.00
2018-11-29T10:44:19.549Z,8980.00
2018-11-29T10:45:19.525Z,8964.00
2018-11-29T10:46:19.519Z,8904.00
2018-11-29T10:47:19.481Z,8796.00
2018-11-29T10:48:19.462Z,8688.00
2018-11-29T10:49:19.493Z,8572.00
2018-11-29T10:50:19.527Z,8492.00
2018-11-29T10:51:19.437Z,8468.00
2018-11-29T10:52:19.366Z,8496.00
2018-11-29T10:53:19.353Z,8540.00
2018-11-29T10:54:19.347Z,8592.00
2018-11-29T10:55:19.315Z,8656.00
2018-11-29T10:56:19.284Z,8636.00
2018-11-29T10:57:19.258Z,8564.00
2018-11-29T10:58:19.239Z,8468.00
2018-11-29T10:59:19.233Z,8396.00
2018-11-29T11:00:19.258Z,8428.00
2018-11-29T11:01:19.179Z,8552.00
2018-11-29T11:02:19.166Z,8764.00
2018-11-29T11:03:19.196Z,9024.00
2018-11-29T11:04:19.115Z,9224.00
2018-11-29T11:05:19.185Z,9328.00
2018-11-29T11:06:19.109Z,9316.00
2018-11-29T11:07:19.073Z,9140.00
2018-11-29T11:08:19.034Z,8868.00
2018-11-29T11:09:18.997Z,8536.00
2018-11-29T11:10:19.061Z,8140.00
2018-11-29T11:11:19.005Z,7804.00
2018-11-29T11:12:18.935Z,7516.00
2018-11-29T11:13:18.918Z,7256.00
2018-11-29T11:14:18.932Z,7012.00
2018-11-29T11:15:18.922Z,6792.00
2018-11-29T11:16:18.866Z,6620.00
2018-11-29T11:17:18.815Z,6508.00
2018-11-29T11:18:18.827Z,6400.00
2018-11-29T11:19:18.776Z,6304.00
2018-11-29T11:20:18.786Z,6180.00
2018-11-29T11:21:18.764Z,6064.00
2018-11-29T11:22:18.738Z,5960.00
2018-11-29T11:23:18.693Z,5888.00
2018-11-29T11:24:18.693Z,5860.00
2018-11-29T11:25:18.658Z,5816.00
2018-11-29T11:26:18.646Z,5784.00
2018-11-29T11:27:18.642Z,5764.00
2018-11-29T11:28:18.593Z,5788.00
2018-11-29T11:29:18.562Z,5844.00
2018-11-29T11:30:18.701Z,5920.00
2018-11-29T11:31:18.505Z,5956.00
2018-11-29T11:32:18.486Z,5964.00
2018-11-29T11:33:18.466Z,5924.00
2018-11-29T11:34:18.444Z,5868.00
2018-11-29T11:35:18.424Z,5840.00
2018-11-29T11:36:18.402Z,5780.00
2018-11-29T11:37:18.379Z,5684.00
2018-11-29T11:38:18.351Z,5584.00
2018-11-29T11:39:18.328Z,5500.00
2018-11-29T11:40:18.309Z,5460.00
2018-11-29T11:41:18.283Z,5512.00
2018-11-29T11:42:18.264Z,5668.00
2018-11-29T11:43:18.255Z,5948.00
2018-11-29T11:44:18.220Z,6356.00
2018-11-29T11:45:18.196Z,6812.00
2018-11-29T11:46:18.186Z,7116.00
2018-11-29T11:47:18.160Z,7188.00
2018-11-29T11:48:18.132Z,7124.00
2018-11-29T11:49:18.113Z,7040.00
2018-11-29T11:50:18.084Z,6984.00
2018-11-29T11:51:18.068Z,6976.00
2018-11-29T11:52:18.046Z,7004.00
2018-11-29T11:53:18.025Z,6964.00
2018-11-29T11:54:18.016Z,6848.00
2018-11-29T11:55:19.204Z,6732.00
2018-11-29T11:56:17.963Z,6632.00
2018-11-29T11:57:17.932Z,6528.00
2018-11-29T11:58:17.911Z,6388.00
2018-11-29T11:59:17.889Z,6192.00
2018-11-29T12:00:18.019Z,5960.00
2018-11-29T12:01:17.849Z,5744.00
2018-11-29T12:02:17.830Z,5556.00
2018-11-29T12:03:17.814Z,5408.00
2018-11-29T12:04:17.779Z,5264.00
2018-11-29T12:05:17.760Z,5124.00
2018-11-29T12:06:17.741Z,4984.00
2018-11-29T12:07:17.718Z,4840.00
2018-11-29T12:08:17.692Z,4708.00
2018-11-29T12:09:17.671Z,4608.00
2018-11-29T12:10:17.649Z,4544.00
2018-11-29T12:11:17.629Z,4500.00
2018-11-29T12:12:17.604Z,4496.00
2018-11-29T12:13:17.585Z,4528.00
2018-11-29T12:14:17.574Z,4612.00
2018-11-29T12:15:17.536Z,4744.00
2018-11-29T12:16:17.521Z,4912.00
2018-11-29T12:17:17.504Z,5104.00
2018-11-29T12:18:17.553Z,5292.00
2018-11-29T12:19:17.453Z,5476.00
2018-11-29T12:20:17.433Z,5660.00
2018-11-29T12:21:17.422Z,5856.00
2018-11-29T12:22:17.415Z,6048.00
2018-11-29T12:23:17.368Z,6268.00
2018-11-29T12:24:17.345Z,6480.00
2018-11-29T12:25:17.316Z,6696.00
2018-11-29T12:26:17.307Z,6892.00
2018-11-29T12:27:17.275Z,7052.00
2018-11-29T12:28:17.256Z,7164.00
2018-11-29T12:29:17.305Z,7256.00
2018-11-29T12:30:17.312Z,7324.00
2018-11-29T12:31:17.186Z,7392.00
2018-11-29T12:32:17.171Z,7452.00
2018-11-29T12:33:17.153Z,7516.00
2018-11-29T12:34:17.133Z,7556.00
2018-11-29T12:35:17.100Z,7556.00
2018-11-29T12:36:17.077Z,7524.00
2018-11-29T12:37:17.080Z,7476.00
2018-11-29T12:38:17.037Z,7396.00
2018-11-29T12:39:17.032Z,7308.00
2018-11-29T12:40:16.996Z,7216.00
2018-11-29T12:41:16.974Z,7132.00
2018-11-29T12:42:17.039Z,7040.00
2018-11-29T12:43:16.929Z,6928.00